createdAt,value
2023-02-06T00:00:59.777Z,90.60
2023-02-06T00:03:23.153Z,90.70
2023-02-06T00:05:56.551Z,90.80
2023-02-06T00:08:19.934Z,90.70
2023-02-06T00:10:44.509Z,90.50
2023-02-06T00:13:07.986Z,90.50
2023-02-06T00:15:31.440Z,90.60
2023-02-06T00:17:54.749Z,90.60
2023-02-06T00:20:18.068Z,90.60
2023-02-06T00:22:41.693Z,90.80
2023-02-06T00:25:05.901Z,90.80
2023-02-06T00:27:30.618Z,90.80
2023-02-06T00:29:55.690Z,90.80
2023-02-06T00:32:19.107Z,90.80
2023-02-06T00:34:42.836Z,90.80
2023-02-06T00:37:06.139Z,90.80
2023-02-06T00:39:29.567Z,90.60
2023-02-06T00:41:52.910Z,90.80
2023-02-06T00:44:17.647Z,90.80
2023-02-06T00:46:41.406Z,90.90
2023-02-06T00:49:05.316Z,90.80
2023-02-06T00:51:28.660Z,90.80
2023-02-06T00:53:52.046Z,90.90
2023-02-06T00:56:16.138Z,90.80
2023-02-06T00:58:39.406Z,90.90
2023-02-06T01:01:04.454Z,91.00
2023-02-06T01:03:27.826Z,91.00
2023-02-06T01:05:51.209Z,90.90
2023-02-06T01:08:14.713Z,91.00
2023-02-06T01:10:38.041Z,90.90
2023-02-06T01:13:02.206Z,90.90
2023-02-06T01:15:25.473Z,91.00
2023-02-06T01:17:50.123Z,90.90
2023-02-06T01:20:15.456Z,90.90
2023-02-06T01:22:39.576Z,90.90
2023-02-06T01:25:03.453Z,90.90
2023-02-06T01:27:28.257Z,90.90
2023-02-06T01:29:51.653Z,91.10
2023-02-06T01:32:14.917Z,91.60
2023-02-06T01:34:39.586Z,91.90
2023-02-06T01:37:03.020Z,92.20
2023-02-06T01:39:26.533Z,92.40
2023-02-06T01:41:50.995Z,92.60
2023-02-06T01:44:18.856Z,92.90
2023-02-06T01:46:44.050Z,92.90
2023-02-06T01:49:09.874Z,92.90
2023-02-06T01:51:34.533Z,92.90
2023-02-06T01:54:02.612Z,92.90
2023-02-06T01:56:28.521Z,92.80
2023-02-06T01:58:58.490Z,92.80
2023-02-06T02:01:22.620Z,92.80
2023-02-06T02:03:48.871Z,92.90
2023-02-06T02:06:15.500Z,92.90
2023-02-06T02:08:42.828Z,92.90
2023-02-06T02:11:09.852Z,92.80
2023-02-06T02:13:34.348Z,92.80
2023-02-06T02:16:02.108Z,92.70
2023-02-06T02:18:49.711Z,92.70
2023-02-06T02:21:59.817Z,93.10
2023-02-06T02:24:39.984Z,93.30
2023-02-06T02:27:47.420Z,93.50
2023-02-06T02:30:51.972Z,93.70
2023-02-06T02:33:49.781Z,93.70
2023-02-06T02:36:21.656Z,93.90
2023-02-06T02:38:56.255Z,94.00
2023-02-06T02:41:27.871Z,94.00
2023-02-06T02:43:58.996Z,94.00
2023-02-06T02:46:29.134Z,94.00
2023-02-06T02:48:57.479Z,93.90
2023-02-06T02:51:22.275Z,94.00
2023-02-06T02:53:46.026Z,93.90
2023-02-06T02:56:18.726Z,94.00
2023-02-06T02:58:42.495Z,94.00
2023-02-06T03:01:11.560Z,93.90
2023-02-06T03:03:39.776Z,93.90
2023-02-06T03:06:53.458Z,93.70
2023-02-06T03:09:29.597Z,93.90
2023-02-06T03:12:00.977Z,93.80
2023-02-06T03:14:34.602Z,93.80
2023-02-06T03:17:04.955Z,93.90
2023-02-06T03:19:34.431Z,93.90
2023-02-06T03:21:59.213Z,94.00
2023-02-06T03:24:26.998Z,94.10
2023-02-06T03:26:54.472Z,94.10
2023-02-06T03:29:18.950Z,94.10
2023-02-06T03:31:46.913Z,94.00
2023-02-06T03:34:18.583Z,93.90
2023-02-06T03:36:42.357Z,93.90
2023-02-06T03:39:07.303Z,93.80
2023-02-06T03:41:35.203Z,93.90
2023-02-06T03:44:00.524Z,94.10
2023-02-06T03:46:26.441Z,94.30
2023-02-06T03:48:53.762Z,94.30
2023-02-06T03:51:20.961Z,94.40
2023-02-06T03:53:46.577Z,94.50
2023-02-06T03:56:17.297Z,94.50
2023-02-06T03:58:40.800Z,94.50
2023-02-06T04:01:05.846Z,94.50
2023-02-06T04:03:29.441Z,94.50
2023-02-06T04:05:52.787Z,94.40
2023-02-06T04:08:16.130Z,94.40
2023-02-06T04:10:39.470Z,94.30
2023-02-06T04:13:04.110Z,94.40
2023-02-06T04:15:27.396Z,94.30
2023-02-06T04:18:00.044Z,94.30
2023-02-06T04:20:24.880Z,94.30
2023-02-06T04:22:48.258Z,94.40
2023-02-06T04:25:11.637Z,94.40
2023-02-06T04:27:34.890Z,94.30
2023-02-06T04:29:59.969Z,94.20
2023-02-06T04:32:23.246Z,94.20
2023-02-06T04:34:46.670Z,94.30
2023-02-06T04:37:12.330Z,94.40
2023-02-06T04:39:36.871Z,94.70
2023-02-06T04:42:00.595Z,94.70
2023-02-06T04:44:24.566Z,94.80
2023-02-06T04:46:49.771Z,94.80
2023-02-06T04:49:14.143Z,94.80
2023-02-06T04:51:37.732Z,94.80
2023-02-06T04:54:01.633Z,94.90
2023-02-06T04:56:25.937Z,94.90
2023-02-06T04:58:49.223Z,94.90
2023-02-06T05:01:12.701Z,94.90
2023-02-06T05:03:37.398Z,94.90
2023-02-06T05:06:02.943Z,94.80
2023-02-06T05:08:26.357Z,94.80
2023-02-06T05:10:52.168Z,94.80
2023-02-06T05:13:15.549Z,94.90
2023-02-06T05:15:39.886Z,94.80
2023-02-06T05:18:03.164Z,94.80
2023-02-06T05:20:27.889Z,94.70
2023-02-06T05:22:51.159Z,94.80
2023-02-06T05:25:14.605Z,94.80
2023-02-06T05:27:37.896Z,94.70
2023-02-06T05:30:01.294Z,94.60
2023-02-06T05:32:24.562Z,94.60
2023-02-06T05:34:47.843Z,94.90
2023-02-06T05:37:12.607Z,95.00
2023-02-06T05:39:35.902Z,95.00
2023-02-06T05:41:59.223Z,95.10
2023-02-06T05:44:22.503Z,95.20
2023-02-06T05:46:48.336Z,95.30
2023-02-06T05:49:11.744Z,95.30
2023-02-06T05:51:35.215Z,95.30
2023-02-06T05:53:59.913Z,95.40
2023-02-06T05:56:23.252Z,95.40
2023-02-06T05:58:46.522Z,95.50
2023-02-06T06:01:11.514Z,95.50
2023-02-06T06:03:34.715Z,95.60
2023-02-06T06:05:58.943Z,95.70
2023-02-06T06:08:22.838Z,95.70
2023-02-06T06:10:47.465Z,95.70
2023-02-06T06:13:10.848Z,95.70
2023-02-06T06:15:34.501Z,95.70
2023-02-06T06:17:58.005Z,95.80
2023-02-06T06:20:21.520Z,95.90
2023-02-06T06:22:44.921Z,95.70
2023-02-06T06:25:08.774Z,95.70
2023-02-06T06:27:33.449Z,95.70
2023-02-06T06:29:56.775Z,95.90
2023-02-06T06:32:20.831Z,96.00
2023-02-06T06:34:44.182Z,95.90
2023-02-06T06:37:07.527Z,96.00
2023-02-06T06:39:30.895Z,96.00
2023-02-06T06:41:54.198Z,96.00
2023-02-06T06:44:19.322Z,96.10
2023-02-06T06:46:42.655Z,96.20
2023-02-06T06:49:06.157Z,96.20
2023-02-06T06:51:30.197Z,96.10
2023-02-06T06:53:53.739Z,96.00
2023-02-06T06:56:17.687Z,96.00
2023-02-06T06:58:41.535Z,96.00
2023-02-06T07:01:06.695Z,96.10
2023-02-06T07:03:30.193Z,96.00
2023-02-06T07:05:53.820Z,96.20
2023-02-06T07:08:17.318Z,96.00
2023-02-06T07:10:42.488Z,96.10
2023-02-06T07:13:06.385Z,96.00
2023-02-06T07:15:29.969Z,96.10
2023-02-06T07:17:55.033Z,96.00
2023-02-06T07:20:18.828Z,96.10
2023-02-06T07:22:42.138Z,96.20
2023-02-06T07:25:06.637Z,96.10
2023-02-06T07:27:29.941Z,96.20
2023-02-06T07:29:53.283Z,96.10
2023-02-06T07:32:16.620Z,96.10
2023-02-06T07:34:41.872Z,96.10
2023-02-06T07:37:05.854Z,96.10
2023-02-06T07:39:29.560Z,96.10
2023-02-06T07:41:54.174Z,96.20
2023-02-06T07:44:18.507Z,96.20
2023-02-06T07:46:42.273Z,96.30
2023-02-06T07:49:05.601Z,96.20
2023-02-06T07:51:30.700Z,96.10
2023-02-06T07:53:54.184Z,96.20
2023-02-06T07:56:20.698Z,96.10
2023-02-06T07:58:44.325Z,96.10
2023-02-06T08:01:08.589Z,96.10
2023-02-06T08:03:31.903Z,96.00
2023-02-06T08:05:55.241Z,96.00
2023-02-06T08:08:19.951Z,96.10
2023-02-06T08:10:43.233Z,96.20
2023-02-06T08:13:07.639Z,96.20
2023-02-06T08:15:31.388Z,96.00
2023-02-06T08:17:54.798Z,96.20
2023-02-06T08:20:18.579Z,96.00
2023-02-06T08:22:42.003Z,95.90
2023-02-06T08:25:08.131Z,96.00
2023-02-06T08:27:31.576Z,96.00
2023-02-06T08:29:55.012Z,96.00
2023-02-06T08:32:18.392Z,96.00
2023-02-06T08:34:41.840Z,96.10
2023-02-06T08:37:05.269Z,96.00
2023-02-06T08:39:29.128Z,95.90
2023-02-06T08:41:53.965Z,96.00
2023-02-06T08:44:19.323Z,96.10
2023-02-06T08:46:43.482Z,96.00
2023-02-06T08:49:11.818Z,96.10
2023-02-06T08:51:36.808Z,96.00
2023-02-06T08:54:02.044Z,96.10
2023-02-06T08:56:26.525Z,96.20
2023-02-06T08:58:51.403Z,96.10
2023-02-06T09:01:16.685Z,95.90
2023-02-06T09:03:40.103Z,96.10
2023-02-06T09:06:09.728Z,96.10
2023-02-06T09:08:33.828Z,96.10
2023-02-06T09:10:57.921Z,96.10
2023-02-06T09:13:21.253Z,96.20
2023-02-06T09:15:52.453Z,96.20
2023-02-06T09:18:15.991Z,96.10
2023-02-06T09:20:39.278Z,95.90
2023-02-06T09:23:02.604Z,95.90
2023-02-06T09:25:25.902Z,96.00
2023-02-06T09:27:49.513Z,96.00
2023-02-06T09:30:14.878Z,95.90
2023-02-06T09:32:39.557Z,96.00
2023-02-06T09:35:04.562Z,96.00
2023-02-06T09:37:28.224Z,96.20
2023-02-06T09:39:51.937Z,96.10
2023-02-06T09:42:22.187Z,96.20
2023-02-06T09:44:54.504Z,95.90
2023-02-06T09:47:25.602Z,96.00
2023-02-06T09:49:54.538Z,96.00
2023-02-06T09:52:35.533Z,96.10
2023-02-06T09:55:04.959Z,95.90
2023-02-06T09:57:40.282Z,95.90
2023-02-06T10:00:15.285Z,95.90
2023-02-06T10:02:59.525Z,95.70
2023-02-06T10:05:36.796Z,95.90
2023-02-06T10:08:15.388Z,95.80
2023-02-06T10:10:44.061Z,95.50
2023-02-06T10:13:15.638Z,95.60
2023-02-06T10:15:45.495Z,95.70
2023-02-06T10:18:16.537Z,95.70
2023-02-06T10:20:49.484Z,95.70
2023-02-06T10:23:19.741Z,95.30
2023-02-06T10:25:49.769Z,95.50
2023-02-06T10:28:26.740Z,95.50
2023-02-06T10:31:15.237Z,95.30
2023-02-06T10:33:50.568Z,95.40
2023-02-06T10:36:31.851Z,95.50
2023-02-06T10:39:20.931Z,95.40
2023-02-06T10:41:55.563Z,95.30
2023-02-06T10:44:26.218Z,95.20
2023-02-06T10:46:52.754Z,95.20
2023-02-06T10:49:24.964Z,95.10
2023-02-06T10:51:55.506Z,94.90
2023-02-06T10:54:24.390Z,94.80
2023-02-06T10:56:49.118Z,94.90
2023-02-06T10:59:23.368Z,94.70
2023-02-06T11:01:50.540Z,94.60
2023-02-06T11:04:18.164Z,94.40
2023-02-06T11:06:45.899Z,94.30
2023-02-06T11:09:11.170Z,94.10
2023-02-06T11:11:40.498Z,94.20
2023-02-06T11:14:16.027Z,93.90
2023-02-06T11:16:39.556Z,93.70
2023-02-06T11:19:17.650Z,94.30
2023-02-06T11:21:55.811Z,94.30
2023-02-06T11:24:24.206Z,94.20
2023-02-06T11:26:52.113Z,93.20
2023-02-06T11:29:18.861Z,93.70
2023-02-06T11:31:44.576Z,93.50
2023-02-06T11:34:08.095Z,93.60
2023-02-06T11:36:36.328Z,92.60
2023-02-06T11:39:02.760Z,93.30
2023-02-06T11:41:28.369Z,93.00
2023-02-06T11:43:53.965Z,92.60
2023-02-06T11:46:21.035Z,92.40
2023-02-06T11:48:47.410Z,92.30
2023-02-06T11:51:13.733Z,91.60
2023-02-06T11:53:38.300Z,91.10
2023-02-06T11:56:18.546Z,91.10
2023-02-06T11:58:44.342Z,89.60
2023-02-06T12:01:09.773Z,90.70
2023-02-06T12:03:37.518Z,90.80
2023-02-06T12:06:09.023Z,89.20
2023-02-06T12:08:45.510Z,88.80
2023-02-06T12:11:18.443Z,88.80
2023-02-06T12:13:47.946Z,89.00
2023-02-06T12:16:16.252Z,89.10
2023-02-06T12:18:43.823Z,88.20
2023-02-06T12:21:12.729Z,88.90
2023-02-06T12:23:42.208Z,88.50
2023-02-06T12:26:13.062Z,88.00
2023-02-06T12:28:51.043Z,88.80
2023-02-06T12:31:22.442Z,87.80
2023-02-06T12:33:53.433Z,88.80
2023-02-06T12:36:21.636Z,87.80
2023-02-06T12:38:51.539Z,88.60
2023-02-06T12:41:43.412Z,89.00
2023-02-06T12:44:22.969Z,88.20
2023-02-06T12:46:50.151Z,87.60
2023-02-06T12:49:22.291Z,87.30
2023-02-06T12:51:54.951Z,87.70
2023-02-06T12:54:24.527Z,87.90
2023-02-06T12:56:52.588Z,89.00
2023-02-06T12:59:57.641Z,88.90
2023-02-06T13:02:38.143Z,89.10
2023-02-06T13:05:05.846Z,89.30
2023-02-06T13:07:30.825Z,88.80
2023-02-06T13:10:02.724Z,88.80
2023-02-06T13:12:28.579Z,88.80
2023-02-06T13:14:56.979Z,89.40
2023-02-06T13:17:23.766Z,89.20
2023-02-06T13:20:05.298Z,88.80
2023-02-06T13:22:49.242Z,88.60
2023-02-06T13:25:52.583Z,89.20
2023-02-06T13:28:58.090Z,89.00
2023-02-06T13:31:35.318Z,89.30
2023-02-06T13:34:08.010Z,89.30
2023-02-06T13:36:52.528Z,88.60
2023-02-06T13:39:25.854Z,89.40
2023-02-06T13:41:49.507Z,90.10
2023-02-06T13:44:20.468Z,90.00
2023-02-06T13:47:30.804Z,90.00
2023-02-06T13:50:28.113Z,89.90
2023-02-06T13:53:12.758Z,89.60
2023-02-06T13:55:49.578Z,88.70
2023-02-06T13:58:39.809Z,89.20
2023-02-06T14:01:06.207Z,89.50
2023-02-06T14:03:38.196Z,89.00
2023-02-06T14:06:12.470Z,89.10
2023-02-06T14:08:49.363Z,89.60
2023-02-06T14:11:55.177Z,89.60
2023-02-06T14:14:36.605Z,89.70
2023-02-06T14:17:10.419Z,89.40
2023-02-06T14:19:44.671Z,89.50
2023-02-06T14:22:18.424Z,90.00
2023-02-06T14:25:05.335Z,89.70
2023-02-06T14:27:45.097Z,89.60
2023-02-06T14:30:27.399Z,89.40
2023-02-06T14:33:05.811Z,89.70
2023-02-06T14:35:44.792Z,90.20
2023-02-06T14:38:42.446Z,89.60
2023-02-06T14:41:06.142Z,89.80
2023-02-06T14:43:32.785Z,89.50
2023-02-06T14:46:07.049Z,89.40
2023-02-06T14:48:38.796Z,89.20
2023-02-06T14:51:04.097Z,89.50
2023-02-06T14:53:31.482Z,89.20
2023-02-06T14:56:09.011Z,89.60
2023-02-06T14:58:32.560Z,89.60
2023-02-06T15:00:58.492Z,89.80
2023-02-06T15:03:28.029Z,89.60
2023-02-06T15:06:01.898Z,89.70
2023-02-06T15:08:26.627Z,89.60
2023-02-06T15:10:59.367Z,89.60
2023-02-06T15:13:25.073Z,89.70
2023-02-06T15:15:57.964Z,90.20
2023-02-06T15:18:21.365Z,90.10
2023-02-06T15:20:47.939Z,90.00
2023-02-06T15:23:19.541Z,89.80
2023-02-06T15:26:03.784Z,89.60
2023-02-06T15:28:31.707Z,89.70
2023-02-06T15:30:57.002Z,89.60
2023-02-06T15:33:25.803Z,89.60
2023-02-06T15:35:53.166Z,89.60
2023-02-06T15:38:18.014Z,89.90
2023-02-06T15:40:46.871Z,89.70
2023-02-06T15:43:15.791Z,89.60
2023-02-06T15:45:39.790Z,89.70
2023-02-06T15:48:12.664Z,89.70
2023-02-06T15:50:37.192Z,90.00
2023-02-06T15:53:01.493Z,89.80
2023-02-06T15:55:29.192Z,89.90
2023-02-06T15:57:56.000Z,89.90
2023-02-06T16:00:25.989Z,90.10
2023-02-06T16:02:49.418Z,90.30
2023-02-06T16:05:26.896Z,90.50
2023-02-06T16:07:51.278Z,90.60
2023-02-06T16:10:23.672Z,90.80
2023-02-06T16:12:47.815Z,90.70
2023-02-06T16:15:30.068Z,90.70
2023-02-06T16:17:54.228Z,90.70
2023-02-06T16:20:33.315Z,90.50
2023-02-06T16:23:19.615Z,90.50
2023-02-06T16:25:43.031Z,90.60
2023-02-06T16:28:22.853Z,90.40
2023-02-06T16:30:56.020Z,90.30
2023-02-06T16:33:31.824Z,90.50
2023-02-06T16:35:55.163Z,90.70
2023-02-06T16:38:18.526Z,90.80
2023-02-06T16:40:42.338Z,90.80
2023-02-06T16:43:07.094Z,90.50
2023-02-06T16:45:31.224Z,90.60
2023-02-06T16:47:56.904Z,90.20
2023-02-06T16:50:21.567Z,90.70
2023-02-06T16:52:50.960Z,90.70
2023-02-06T16:55:19.339Z,90.80
2023-02-06T16:57:45.093Z,90.90
2023-02-06T17:00:18.537Z,90.50
2023-02-06T17:02:41.869Z,91.00
2023-02-06T17:05:06.982Z,91.20
2023-02-06T17:07:34.929Z,91.30
2023-02-06T17:10:00.435Z,91.10
2023-02-06T17:12:24.389Z,91.30
2023-02-06T17:14:48.769Z,91.20
2023-02-06T17:17:14.486Z,91.10
2023-02-06T17:19:38.059Z,91.10
2023-02-06T17:22:03.177Z,91.10
2023-02-06T17:24:26.470Z,91.10
2023-02-06T17:26:50.552Z,91.00
2023-02-06T17:29:15.335Z,90.90
2023-02-06T17:31:38.709Z,90.90
2023-02-06T17:34:01.997Z,91.00
2023-02-06T17:36:29.519Z,91.00
2023-02-06T17:38:54.343Z,91.30
2023-02-06T17:41:17.749Z,91.30
2023-02-06T17:43:41.083Z,91.20
2023-02-06T17:46:04.796Z,91.50
2023-02-06T17:48:28.207Z,91.80
2023-02-06T17:50:51.603Z,91.80
2023-02-06T17:53:15.691Z,91.70
2023-02-06T17:55:41.010Z,92.30
2023-02-06T17:58:04.948Z,92.50
2023-02-06T18:00:28.508Z,92.50
2023-02-06T18:02:52.781Z,92.40
2023-02-06T18:05:16.234Z,92.50
2023-02-06T18:07:40.578Z,92.50
2023-02-06T18:10:04.005Z,92.40
2023-02-06T18:12:29.084Z,92.30
2023-02-06T18:14:52.692Z,92.40
2023-02-06T18:17:16.044Z,92.40
2023-02-06T18:19:42.417Z,92.40
2023-02-06T18:22:06.108Z,92.40
2023-02-06T18:24:29.518Z,92.40
2023-02-06T18:26:52.989Z,92.30
2023-02-06T18:29:17.845Z,92.40
2023-02-06T18:31:41.558Z,92.40
2023-02-06T18:34:08.039Z,92.50
2023-02-06T18:36:31.737Z,92.50
2023-02-06T18:38:56.492Z,92.40
2023-02-06T18:41:37.842Z,92.60
2023-02-06T18:44:02.386Z,92.80
2023-02-06T18:46:27.109Z,93.00
2023-02-06T18:48:50.686Z,92.90
2023-02-06T18:51:14.070Z,92.80
2023-02-06T18:53:37.331Z,92.80
2023-02-06T18:56:01.811Z,92.60
2023-02-06T18:58:25.126Z,92.60
2023-02-06T19:00:48.445Z,92.70
2023-02-06T19:03:13.498Z,92.80
2023-02-06T19:05:37.447Z,92.80
2023-02-06T19:08:01.169Z,93.00
2023-02-06T19:10:25.805Z,92.90
2023-02-06T19:12:49.351Z,92.90
2023-02-06T19:15:13.422Z,92.80
2023-02-06T19:17:37.384Z,92.70
2023-02-06T19:20:02.291Z,92.60
2023-02-06T19:22:25.706Z,92.70
2023-02-06T19:24:51.045Z,92.80
2023-02-06T19:27:14.563Z,92.80
2023-02-06T19:29:38.267Z,92.90
2023-02-06T19:32:01.653Z,92.90
2023-02-06T19:34:25.047Z,92.90
2023-02-06T19:36:50.055Z,92.90
2023-02-06T19:39:14.902Z,92.90
2023-02-06T19:41:38.995Z,92.90
2023-02-06T19:44:05.604Z,93.00
2023-02-06T19:46:29.556Z,92.90
2023-02-06T19:48:54.053Z,93.00
2023-02-06T19:51:20.651Z,93.00
2023-02-06T19:53:46.304Z,93.00
2023-02-06T19:56:09.733Z,93.00
2023-02-06T19:58:33.457Z,92.90
2023-02-06T20:00:57.399Z,93.00
2023-02-06T20:03:20.783Z,93.10
2023-02-06T20:05:44.486Z,93.00
2023-02-06T20:08:07.974Z,93.00
2023-02-06T20:10:32.654Z,93.20
2023-02-06T20:12:58.659Z,93.50
2023-02-06T20:15:22.549Z,93.30
2023-02-06T20:17:45.973Z,93.20
2023-02-06T20:20:10.882Z,93.00
2023-02-06T20:22:34.390Z,92.70
2023-02-06T20:24:57.733Z,92.60
2023-02-06T20:27:22.444Z,92.20
2023-02-06T20:29:45.905Z,92.20
2023-02-06T20:32:11.011Z,92.30
2023-02-06T20:34:35.040Z,92.40
2023-02-06T20:36:58.829Z,92.30
2023-02-06T20:39:22.985Z,92.20
2023-02-06T20:41:49.467Z,92.10
2023-02-06T20:44:15.413Z,92.10
2023-02-06T20:46:38.749Z,92.20
2023-02-06T20:49:09.192Z,92.30
2023-02-06T20:51:33.274Z,92.30
2023-02-06T20:53:56.877Z,92.40
2023-02-06T20:56:21.730Z,92.40
2023-02-06T20:58:45.902Z,92.40
2023-02-06T21:01:17.211Z,92.30
2023-02-06T21:03:40.588Z,92.30
2023-02-06T21:06:03.969Z,92.20
2023-02-06T21:08:27.980Z,92.10
2023-02-06T21:10:51.986Z,92.00
2023-02-06T21:13:15.341Z,92.20
2023-02-06T21:15:38.695Z,92.10
2023-02-06T21:18:03.328Z,92.20
2023-02-06T21:20:26.681Z,92.20
2023-02-06T21:22:52.779Z,92.00
2023-02-06T21:25:16.078Z,92.20
2023-02-06T21:27:39.372Z,92.10
2023-02-06T21:30:02.769Z,92.20
2023-02-06T21:32:26.168Z,92.20
2023-02-06T21:34:50.865Z,92.20
2023-02-06T21:37:14.483Z,92.30
2023-02-06T21:39:38.891Z,92.50
2023-02-06T21:42:02.209Z,92.40
2023-02-06T21:44:26.442Z,92.40
2023-02-06T21:46:50.031Z,92.30
2023-02-06T21:49:14.297Z,92.30
2023-02-06T21:51:39.493Z,92.20
2023-02-06T21:54:03.021Z,92.20
2023-02-06T21:56:28.619Z,92.30
2023-02-06T21:58:52.495Z,92.50
2023-02-06T22:01:17.066Z,92.60
2023-02-06T22:03:40.789Z,92.70
2023-02-06T22:06:08.700Z,92.80
2023-02-06T22:08:34.438Z,92.70
2023-02-06T22:10:58.210Z,92.70
2023-02-06T22:13:21.545Z,92.60
2023-02-06T22:15:51.336Z,92.60
2023-02-06T22:18:14.841Z,92.70
2023-02-06T22:20:38.104Z,92.80
2023-02-06T22:23:01.405Z,92.80
2023-02-06T22:25:28.434Z,92.90
2023-02-06T22:27:51.890Z,92.80
2023-02-06T22:30:15.739Z,93.00
2023-02-06T22:32:40.320Z,92.90
2023-02-06T22:35:03.611Z,93.10
2023-02-06T22:37:27.770Z,93.20
2023-02-06T22:39:51.002Z,93.20
2023-02-06T22:42:15.662Z,93.30
2023-02-06T22:44:39.275Z,93.30
2023-02-06T22:47:02.617Z,93.30
2023-02-06T22:49:26.418Z,93.20
2023-02-06T22:51:49.873Z,93.20
2023-02-06T22:54:14.449Z,93.10
2023-02-06T22:56:41.066Z,93.20
2023-02-06T22:59:11.103Z,93.10
2023-02-06T23:01:37.268Z,93.10
2023-02-06T23:04:02.099Z,92.80
2023-02-06T23:06:27.268Z,92.90
2023-02-06T23:08:50.821Z,92.80
2023-02-06T23:11:14.900Z,92.70
2023-02-06T23:13:39.173Z,92.80
2023-02-06T23:16:04.609Z,93.00
2023-02-06T23:18:29.553Z,93.10
2023-02-06T23:20:55.946Z,93.00
2023-02-06T23:23:19.197Z,93.00
2023-02-06T23:25:44.923Z,92.80
2023-02-06T23:28:08.270Z,92.80
2023-02-06T23:30:31.638Z,92.80
2023-02-06T23:32:56.317Z,92.80
2023-02-06T23:35:19.747Z,92.90
2023-02-06T23:37:43.053Z,92.80
2023-02-06T23:40:08.251Z,92.70
2023-02-06T23:42:31.583Z,92.80
2023-02-06T23:44:54.912Z,92.90
2023-02-06T23:47:18.242Z,92.90
2023-02-06T23:49:42.878Z,92.90
2023-02-06T23:52:06.513Z,92.80
2023-02-06T23:54:29.880Z,92.70
2023-02-06T23:56:53.343Z,92.70
2023-02-06T23:59:16.606Z,92.80
